Airfield :







YOU CAN JOIN US ON...

 
LOGIN :

Register | Disclaimer

   EN    FR    IT 

 









Legend :    VFR   Marginal VFR   IFR   Intensive IFR   Very Intensive IFR
Visi :
Ceiling :
>= 8 km
>= 3000ft
5 to 8 km
1000 to 3000 ft
1500m to 5 km
500 to 1000 ft
800 to 1500m
200 to 500 ft
< 800m
< 200 ft
Symbols :   Thunderstorms  Fog  Heavy snow  Heavy precipitations  Wind > 20 kt






- Airport Elevation : 90 ft
- IATA code : YHU


CYHU - Montréal Saint-Hubert

CURRENT METAR :
  • 161900Z AUTO 23016KT 9SM OVC044 02/M04 A2991 RMK SLP133

EXPIRED METARs :
  • 161800Z AUTO 22019KT 9SM CLR 02/M03 A2993 RMK SLP137
  • 161700Z AUTO 20012G17KT 9SM OVC048 M00/M03 A2995 RMK SLP145

TAF TAF CYHU
Valid from the 16 at 18:00 until the 17 at 18:00 UTC


161739Z 1618/1718 22012G22KT P6SM BKN040
BECMG 1623/1701 24012KT
FM170300 24012KT P6SM BKN025
TEMPO 1703/1708 3SM -SHSN OVC020
PROB30 1703/1708 1SM -SHSN VV010
FM170900 27012KT P6SM SCT030
BECMG 1712/1714 30010KT
BECMG 1716/1718 27012KT RMK FCST BASED ON AUTO OBS. NXT FCST BY 170000Z



MET'MAP, your aeronautical weather chart ! - Copyright ORBIFLY December 2007 - Disclaimer

ORBIFLY MET'MAP TEAM :

Programming & Development : Alexandra Zaïnal
Concept & original design : Baudouin d'Aumeries
Assistance for programming : Marc-Olivier Méhu
Technical & hardware support : Manuel Goepfert

Contact : metmap@orbifly.com




SOURCES & CREDITS :

   NOAA